Time;durP1;ratioP1;P1;durP2;ratioP2;P2;SDS_P1;SDS_P2;PMS_P1;PMS_P2;Temp;Humidity;BMP_temperature;BMP_pressure;BME280_temperature;BME280_humidity;BME280_pressure;Samples;Min_cycle;Max_cycle;Signal;HPM_P1;HPM_P2
2020/12/03 00:01:54;;;;;;;17.35;3.72;;;15.30;99.90;;;;;;5050847;28;20024;-81
2020/12/03 00:04:21;;;;;;;7.13;3.25;;;15.30;99.90;;;;;;5047415;28;20406;-81
2020/12/03 00:06:54;;;;;;;10.73;3.22;;;15.20;99.90;;;;;;5048058;28;20051;-81
2020/12/03 00:09:21;;;;;;;6.30;1.60;;;15.20;99.90;;;;;;5048622;28;20052;-81
2020/12/03 00:11:52;;;;;;;14.30;2.42;;;15.20;99.90;;;;;;5049190;28;20017;-81
2020/12/03 00:14:19;;;;;;;9.10;2.38;;;15.20;99.90;;;;;;5029780;28;20029;-81
2020/12/03 00:16:48;;;;;;;11.95;2.53;;;15.20;99.90;;;;;;5029993;28;20026;-82
2020/12/03 00:19:16;;;;;;;8.95;3.95;;;15.10;99.90;;;;;;5045529;28;20072;-83
2020/12/03 00:21:47;;;;;;;13.55;3.60;;;15.20;99.90;;;;;;5048799;28;20477;-84
2020/12/03 00:24:19;;;;;;;17.58;3.05;;;15.20;99.90;;;;;;5048789;28;20440;-83
2020/12/03 00:26:45;;;;;;;10.98;3.55;;;15.10;99.90;;;;;;5048452;28;20283;-84
2020/12/03 00:29:11;;;;;;;14.55;3.75;;;15.10;99.90;;;;;;5049320;28;20108;-83
2020/12/03 00:31:37;;;;;;;14.55;4.13;;;15.00;99.90;;;;;;5047553;28;20029;-83
2020/12/03 00:34:06;;;;;;;20.50;5.10;;;15.00;99.90;;;;;;5029871;28;20037;-82
2020/12/03 00:36:32;;;;;;;7.10;2.28;;;14.90;99.90;;;;;;5048281;28;20107;-83
2020/12/03 00:38:58;;;;;;;2.08;0.90;;;14.70;99.90;;;;;;5048462;28;20025;-84
2020/12/03 00:41:24;;;;;;;4.13;1.70;;;14.50;99.90;;;;;;5048035;28;20123;-84
2020/12/03 00:43:50;;;;;;;5.53;1.20;;;14.30;99.90;;;;;;5048174;28;20044;-83
2020/12/03 00:46:21;;;;;;;4.82;1.25;;;14.00;99.90;;;;;;5049265;28;20024;-82
2020/12/03 00:48:48;;;;;;;1.73;0.80;;;13.80;99.90;;;;;;5047712;28;20044;-81
2020/12/03 00:51:14;;;;;;;5.03;0.70;;;13.70;99.90;;;;;;5027981;28;20022;-81
2020/12/03 00:53:41;;;;;;;0.35;0.20;;;13.70;99.90;;;;;;5044047;28;20036;-81
2020/12/03 00:56:09;;;;;;;2.03;0.50;;;13.70;99.90;;;;;;5047883;28;20489;-81
2020/12/03 00:58:35;;;;;;;1.55;0.60;;;13.70;99.90;;;;;;5047998;28;20029;-81
2020/12/03 01:01:02;;;;;;;0.80;0.70;;;13.60;99.90;;;;;;5048071;28;20029;-81
2020/12/03 01:03:28;;;;;;;0.90;0.20;;;13.60;99.90;;;;;;5047813;28;20044;-80
2020/12/03 01:05:55;;;;;;;1.00;0.40;;;13.60;99.90;;;;;;5048225;28;20033;-84
2020/12/03 01:08:21;;;;;;;1.98;0.45;;;13.70;99.90;;;;;;5047408;28;20257;-81
2020/12/03 01:10:47;;;;;;;2.38;1.23;;;13.80;99.90;;;;;;5048118;28;20032;-83
2020/12/03 01:13:22;;;;;;;11.52;3.08;;;13.80;99.90;;;;;;5047880;28;20029;-84
2020/12/03 01:15:48;;;;;;;13.32;4.28;;;14.00;99.90;;;;;;5047969;28;20385;-84
2020/12/03 01:18:15;;;;;;;18.35;4.85;;;14.20;99.90;;;;;;5049217;28;20029;-81
2020/12/03 01:20:41;;;;;;;18.25;3.42;;;14.40;99.90;;;;;;5048183;28;20035;-83
2020/12/03 01:23:08;;;;;;;27.95;5.05;;;14.50;99.90;;;;;;5047209;28;20078;-81
2020/12/03 01:25:35;;;;;;;27.70;5.53;;;14.60;99.90;;;;;;5047951;28;20068;-82
2020/12/03 01:28:04;;;;;;;16.27;4.72;;;14.60;99.90;;;;;;5047664;28;20029;-81
2020/12/03 01:30:31;;;;;;;9.15;3.47;;;14.60;99.90;;;;;;5047275;28;20025;-81
2020/12/03 01:32:59;;;;;;;15.32;3.90;;;14.70;99.90;;;;;;5031819;28;20032;-80
2020/12/03 01:35:27;;;;;;;10.52;3.25;;;14.70;99.90;;;;;;5047466;28;20033;-82
2020/12/03 01:37:53;;;;;;;10.30;3.55;;;14.70;99.90;;;;;;5052668;28;20033;-81
2020/12/03 01:40:31;;;;;;;20.98;4.50;;;14.70;99.90;;;;;;5051859;28;20086;-81
2020/12/03 01:43:00;;;;;;;17.25;4.70;;;14.80;99.90;;;;;;5051662;28;20099;-81
2020/12/03 01:45:49;;;;;;;16.38;4.18;;;14.80;99.90;;;;;;5051595;28;20424;-81
2020/12/03 01:48:48;;;;;;;16.67;4.65;;;14.80;99.90;;;;;;5051312;28;20067;-83
2020/12/03 01:51:28;;;;;;;12.02;2.38;;;14.80;99.90;;;;;;5051628;28;20039;-82
2020/12/03 01:54:00;;;;;;;5.28;1.60;;;14.30;99.90;;;;;;5051220;28;20036;-81
2020/12/03 02:12:21;;;;;;;3.58;0.90;;;13.70;99.90;;;;;;5126825;27;20390;-76
2020/12/03 02:14:47;;;;;;;4.57;0.95;;;13.80;99.90;;;;;;5126856;28;20038;-77
2020/12/03 02:17:13;;;;;;;4.15;1.38;;;13.80;99.90;;;;;;5088156;28;20124;-77
2020/12/03 02:19:42;;;;;;;4.57;1.02;;;13.70;99.90;;;;;;5106235;28;20024;-77
2020/12/03 02:22:14;;;;;;;2.13;0.55;;;13.80;99.90;;;;;;5106953;28;20540;-78
2020/12/03 02:24:42;;;;;;;5.57;1.70;;;13.90;99.90;;;;;;5126898;28;20361;-77
2020/12/03 02:27:10;;;;;;;4.95;1.35;;;13.90;99.90;;;;;;5107764;28;20388;-79
2020/12/03 02:29:37;;;;;;;4.60;1.33;;;14.00;99.90;;;;;;5126603;28;20069;-77
2020/12/03 02:32:03;;;;;;;8.23;1.52;;;14.00;99.90;;;;;;5126342;28;20515;-77
2020/12/03 02:34:30;;;;;;;3.03;1.20;;;14.00;99.90;;;;;;5126664;28;20024;-78
2020/12/03 02:37:00;;;;;;;4.07;1.95;;;14.10;99.90;;;;;;5126437;28;20031;-77
2020/12/03 02:39:28;;;;;;;5.53;2.47;;;14.10;99.90;;;;;;5126423;28;20425;-78
2020/12/03 02:41:55;;;;;;;6.82;2.05;;;14.10;99.90;;;;;;5126208;28;20111;-78
2020/12/03 02:44:21;;;;;;;5.22;1.63;;;14.20;99.90;;;;;;5126108;28;20016;-77
2020/12/03 02:46:48;;;;;;;9.85;1.90;;;14.20;99.90;;;;;;5126161;28;20015;-77
2020/12/03 02:49:16;;;;;;;6.85;2.20;;;14.20;99.90;;;;;;5126140;28;20474;-78
2020/12/03 02:51:42;;;;;;;5.78;1.52;;;14.30;99.90;;;;;;5125987;28;20031;-77
2020/12/03 02:54:10;;;;;;;7.45;2.13;;;14.30;99.90;;;;;;5125898;28;20035;-78
2020/12/03 02:56:37;;;;;;;12.68;2.33;;;14.30;99.90;;;;;;5125745;28;20038;-77
2020/12/03 02:59:04;;;;;;;7.50;1.98;;;14.30;99.90;;;;;;5120493;28;20477;-78
2020/12/03 03:01:31;;;;;;;12.95;2.53;;;14.30;99.90;;;;;;5104693;28;20039;-78
2020/12/03 03:03:58;;;;;;;7.10;2.00;;;14.40;99.90;;;;;;5092698;28;20430;-77
2020/12/03 03:06:24;;;;;;;14.10;2.00;;;14.40;99.90;;;;;;5124141;28;20031;-78
2020/12/03 03:08:50;;;;;;;8.88;2.10;;;14.40;99.90;;;;;;5124059;28;20047;-78
2020/12/03 03:11:16;;;;;;;5.85;2.35;;;14.50;99.90;;;;;;5121617;28;20054;-78
2020/12/03 03:13:42;;;;;;;6.57;1.55;;;14.50;99.90;;;;;;5110231;28;20027;-79
2020/12/03 03:16:09;;;;;;;4.88;1.63;;;14.40;99.90;;;;;;5110175;28;20518;-78
2020/12/03 03:18:35;;;;;;;5.93;2.03;;;14.40;99.90;;;;;;5111869;28;20019;-78
2020/12/03 03:21:01;;;;;;;3.83;1.23;;;14.50;99.90;;;;;;5112292;28;20491;-77
2020/12/03 03:23:27;;;;;;;3.85;1.50;;;14.40;99.90;;;;;;5111585;28;20024;-78
2020/12/03 07:42:02;;;;;;;9.20;1.88;;;14.30;99.90;;;;;;5880658;23;20047;31
2020/12/03 07:44:33;;;;;;;8.70;3.25;;;14.30;99.90;;;;;;4770497;29;20530;-82
2020/12/03 07:47:24;;;;;;;10.57;1.77;;;14.30;99.90;;;;;;4767218;30;20086;-82
2020/12/03 07:49:53;;;;;;;13.73;2.15;;;14.40;99.90;;;;;;4766886;30;20044;-83
2020/12/03 07:52:27;;;;;;;14.75;2.83;;;14.50;99.90;;;;;;4766996;30;20035;-82
2020/12/03 07:55:13;;;;;;;5.00;1.70;;;14.50;99.90;;;;;;4769913;30;20039;-81
2020/12/03 07:57:39;;;;;;;8.30;2.10;;;14.50;99.90;;;;;;4767242;30;20043;-84
2020/12/03 08:00:45;;;;;;;13.93;3.13;;;14.60;99.90;;;;;;4766460;30;20563;-81
2020/12/03 08:03:39;;;;;;;10.38;1.60;;;14.70;99.90;;;;;;4764671;30;20079;-80
2020/12/03 08:06:15;;;;;;;6.45;2.20;;;14.80;99.90;;;;;;4780985;29;20047;-80
2020/12/03 08:09:04;;;;;;;10.02;2.15;;;14.80;99.90;;;;;;4784536;30;20035;-80
2020/12/03 08:11:44;;;;;;;11.07;2.28;;;14.80;99.90;;;;;;4762526;30;20039;-81
2020/12/03 08:14:34;;;;;;;6.78;2.63;;;14.90;99.90;;;;;;4784659;29;20079;-82
2020/12/03 08:17:01;;;;;;;11.55;2.30;;;15.00;99.90;;;;;;4743623;30;20102;-83
2020/12/03 08:19:36;;;;;;;4.90;1.83;;;15.00;99.90;;;;;;4764135;30;20518;-81
2020/12/03 08:22:04;;;;;;;14.60;2.65;;;15.00;99.90;;;;;;4749107;30;20055;-83
2020/12/03 08:24:32;;;;;;;9.63;2.22;;;15.00;99.90;;;;;;4748958;30;20070;-82
2020/12/03 08:27:04;;;;;;;12.73;2.28;;;15.00;99.90;;;;;;4796143;29;20051;-83
2020/12/03 08:29:37;;;;;;;6.07;1.83;;;15.00;99.90;;;;;;4785648;29;20027;-80
2020/12/03 08:32:03;;;;;;;15.25;3.35;;;15.00;99.90;;;;;;4761947;30;20046;-79
2020/12/03 08:34:47;;;;;;;11.47;2.80;;;15.00;99.90;;;;;;4766255;30;20043;-84
2020/12/03 08:37:23;;;;;;;8.77;2.00;;;15.00;99.90;;;;;;4766872;30;20060;-81
2020/12/03 08:39:55;;;;;;;12.88;2.90;;;15.10;99.90;;;;;;4766154;30;20074;-83
2020/12/03 08:42:21;;;;;;;10.48;2.20;;;15.20;99.90;;;;;;4769204;30;20062;-82
2020/12/03 08:44:50;;;;;;;8.07;2.05;;;15.30;99.90;;;;;;4784368;29;20387;-82
2020/12/03 08:47:33;;;;;;;22.15;2.47;;;15.30;99.90;;;;;;4769793;29;20039;-81
2020/12/03 08:50:01;;;;;;;13.88;3.00;;;15.40;99.90;;;;;;4781438;29;20447;-81
2020/12/03 08:52:31;;;;;;;10.77;1.95;;;15.40;99.90;;;;;;4785016;29;20048;-82
2020/12/03 08:55:05;;;;;;;9.35;1.92;;;15.50;99.90;;;;;;4764740;30;20035;-81
2020/12/03 08:57:36;;;;;;;10.30;2.25;;;15.50;99.90;;;;;;4776563;29;20039;-82
2020/12/03 09:00:07;;;;;;;14.00;3.17;;;15.50;99.90;;;;;;4802323;29;20047;-83
2020/12/03 09:02:33;;;;;;;5.40;1.38;;;15.50;99.90;;;;;;4803373;29;20035;-83
2020/12/03 09:05:00;;;;;;;11.02;2.05;;;15.50;99.90;;;;;;4794014;29;20130;-82
2020/12/03 09:07:32;;;;;;;8.25;1.75;;;15.60;99.90;;;;;;4792378;29;20036;-82
2020/12/03 09:10:02;;;;;;;13.73;2.05;;;15.60;99.90;;;;;;4779437;29;20032;-82
2020/12/03 09:12:34;;;;;;;4.90;1.85;;;15.60;99.90;;;;;;4812469;29;20520;-81
2020/12/03 09:15:03;;;;;;;6.47;1.75;;;15.60;99.90;;;;;;4801775;29;20055;-82
2020/12/03 09:17:32;;;;;;;10.25;2.42;;;15.70;99.90;;;;;;4801774;29;20030;-82
2020/12/03 09:20:04;;;;;;;7.90;1.95;;;15.70;99.90;;;;;;4786521;29;20039;-82
2020/12/03 09:22:33;;;;;;;7.53;2.25;;;15.70;99.90;;;;;;4783861;29;20402;-83
2020/12/03 09:25:01;;;;;;;7.60;2.03;;;15.70;99.90;;;;;;4794145;29;20070;-82
2020/12/03 09:27:29;;;;;;;13.10;1.90;;;15.70;99.90;;;;;;4801446;29;20046;-83
2020/12/03 09:29:57;;;;;;;9.90;2.08;;;15.70;99.90;;;;;;4801277;29;20412;-81
2020/12/03 09:32:25;;;;;;;9.48;2.15;;;15.70;99.90;;;;;;4789360;29;20071;-81
2020/12/03 09:34:56;;;;;;;8.43;1.33;;;15.70;99.90;;;;;;4765040;30;20437;-82
2020/12/03 09:37:22;;;;;;;8.35;1.92;;;15.70;99.90;;;;;;4795188;29;20042;-82
2020/12/03 09:39:49;;;;;;;11.25;2.28;;;15.70;99.90;;;;;;4783052;29;20062;-82
2020/12/03 09:42:17;;;;;;;12.02;3.17;;;15.70;99.90;;;;;;4788237;29;20066;-82
2020/12/03 09:44:48;;;;;;;9.50;3.20;;;15.70;99.90;;;;;;4788390;29;20483;-81
2020/12/03 09:47:18;;;;;;;11.90;2.63;;;15.80;99.90;;;;;;4798406;29;20417;-82
2020/12/03 09:49:46;;;;;;;12.00;2.08;;;15.80;99.90;;;;;;4782776;29;20042;-81
2020/12/03 09:52:13;;;;;;;7.50;2.42;;;15.70;99.90;;;;;;4800030;29;20032;-81
2020/12/03 09:54:47;;;;;;;11.50;1.95;;;15.80;99.90;;;;;;4815979;29;20042;-81
2020/12/03 09:57:15;;;;;;;9.02;2.15;;;15.80;99.90;;;;;;4816174;29;20558;-81
2020/12/03 09:59:43;;;;;;;6.68;1.80;;;15.80;99.90;;;;;;4782432;29;20027;-81
2020/12/03 10:02:13;;;;;;;13.05;2.80;;;15.80;99.90;;;;;;4790168;29;20066;-81
2020/12/03 10:05:22;;;;;;;13.20;2.80;;;15.70;99.90;;;;;;4790007;29;20027;-82
2020/12/03 10:08:08;;;;;;;8.18;3.00;;;15.80;99.90;;;;;;4754686;29;20039;-81
2020/12/03 10:11:07;;;;;;;12.38;2.22;;;15.90;99.90;;;;;;4791668;29;20133;-81
2020/12/03 10:14:14;;;;;;;12.30;2.05;;;15.80;99.90;;;;;;4782422;29;20036;-81
2020/12/03 10:16:45;;;;;;;5.35;2.35;;;15.70;99.90;;;;;;4776306;29;20069;-81
2020/12/03 10:19:12;;;;;;;3.97;1.50;;;15.80;99.90;;;;;;4782364;29;20043;-80
2020/12/03 10:21:51;;;;;;;9.30;2.17;;;15.70;99.90;;;;;;4793415;29;20192;-81
2020/12/03 10:24:25;;;;;;;5.72;1.63;;;15.80;99.90;;;;;;4803130;29;20034;-81
2020/12/03 10:26:59;;;;;;;7.82;1.50;;;15.80;99.90;;;;;;4793683;29;20043;-81
2020/12/03 10:29:31;;;;;;;8.75;2.63;;;15.90;99.90;;;;;;4772136;30;20450;-81
2020/12/03 10:32:10;;;;;;;7.97;1.38;;;15.90;99.90;;;;;;4790999;29;20131;-80
2020/12/03 10:34:39;;;;;;;5.68;1.38;;;15.90;99.90;;;;;;4801758;29;20050;-81
2020/12/03 10:37:24;;;;;;;6.85;2.15;;;15.90;99.90;;;;;;4803764;29;20121;-81
2020/12/03 10:40:18;;;;;;;5.60;1.30;;;15.90;99.90;;;;;;4788889;29;20050;-83
2020/12/03 10:43:08;;;;;;;9.30;3.08;;;15.90;99.90;;;;;;4804428;29;20052;-81
2020/12/03 10:45:40;;;;;;;8.75;2.72;;;15.90;99.90;;;;;;4809883;29;20432;-82
2020/12/03 10:48:32;;;;;;;2.92;1.52;;;16.00;99.90;;;;;;4803635;29;20394;-81
2020/12/03 10:50:59;;;;;;;14.25;3.30;;;16.10;99.90;;;;;;4773783;29;20048;-81
2020/12/03 10:53:31;;;;;;;10.32;2.85;;;16.00;99.90;;;;;;4793076;29;20080;-81
2020/12/03 10:56:00;;;;;;;6.88;1.60;;;16.10;99.90;;;;;;4804014;29;20030;-81
2020/12/03 10:58:50;;;;;;;16.10;2.83;;;16.10;99.90;;;;;;4810556;29;20063;-81
2020/12/03 11:01:28;;;;;;;10.68;2.78;;;16.10;99.90;;;;;;4782317;30;20115;-81
2020/12/03 11:04:04;;;;;;;10.38;2.80;;;16.10;99.90;;;;;;4767673;30;20039;-81
2020/12/03 11:06:32;;;;;;;9.38;1.70;;;16.10;99.90;;;;;;4767648;30;20118;-81
2020/12/03 11:09:01;;;;;;;10.68;2.58;;;16.10;99.90;;;;;;4804753;29;20718;-81
2020/12/03 11:11:37;;;;;;;12.23;2.80;;;16.10;99.90;;;;;;4804759;29;20039;-83
2020/12/03 11:14:15;;;;;;;7.40;2.00;;;16.10;99.90;;;;;;4803379;29;20031;-84
2020/12/03 11:16:47;;;;;;;13.90;3.75;;;16.10;99.90;;;;;;4802210;29;20062;-83
2020/12/03 11:19:16;;;;;;;10.80;2.10;;;16.10;99.90;;;;;;4794964;29;20039;-82
2020/12/03 11:21:55;;;;;;;9.30;2.80;;;16.10;99.90;;;;;;4788433;29;20130;-82
2020/12/03 11:24:34;;;;;;;7.93;2.53;;;16.10;99.90;;;;;;4780594;29;20046;-82
2020/12/03 11:27:04;;;;;;;13.63;1.88;;;16.10;99.90;;;;;;4792098;29;20031;-81
2020/12/03 11:29:39;;;;;;;12.80;2.88;;;16.20;99.90;;;;;;4785379;29;20047;-82
2020/12/03 11:32:05;;;;;;;9.43;1.88;;;16.30;99.90;;;;;;4786005;29;20081;-81
2020/12/03 11:34:39;;;;;;;13.15;2.25;;;16.30;99.90;;;;;;4785049;30;20035;-82
2020/12/03 11:37:08;;;;;;;7.32;1.98;;;16.30;99.90;;;;;;4797298;29;20038;-82
2020/12/03 11:39:35;;;;;;;9.10;2.10;;;16.30;99.90;;;;;;4803370;29;20077;-82
2020/12/03 11:42:57;;;;;;;9.38;2.00;;;16.30;99.90;;;;;;4800480;29;20432;-82
2020/12/03 11:48:19;;;;;;;14.00;2.20;;;16.30;99.90;;;;;;4796512;29;20068;-82
2020/12/03 11:50:45;;;;;;;8.52;1.50;;;16.20;99.90;;;;;;4796233;29;20043;-82
2020/12/03 11:53:11;;;;;;;10.80;2.47;;;16.20;99.90;;;;;;4781979;29;20047;-81
2020/12/03 11:55:39;;;;;;;12.65;2.47;;;16.20;99.90;;;;;;4788673;29;20047;-82
2020/12/03 11:58:07;;;;;;;10.73;2.92;;;16.20;99.90;;;;;;4796632;29;20555;-80
2020/12/03 12:00:34;;;;;;;11.05;3.10;;;16.10;99.90;;;;;;4813767;29;20035;-82
2020/12/03 12:03:11;;;;;;;8.68;2.85;;;16.10;99.90;;;;;;4800178;29;20035;-82
2020/12/03 12:13:22;;;;;;;9.02;2.17;;;16.00;99.90;;;;;;4801144;29;20100;-82
2020/12/03 12:15:49;;;;;;;10.73;2.70;;;15.90;99.90;;;;;;4784382;29;20406;-82
2020/12/03 12:18:16;;;;;;;16.52;3.33;;;15.90;99.90;;;;;;4791425;29;20087;-82
2020/12/03 19:51:35;;;;;;;3.60;1.10;;;13.00;99.90;;;;;;4808059;29;20047;-84
2020/12/03 19:54:01;;;;;;;5.43;1.33;;;12.80;99.90;;;;;;4787228;29;20031;-84
2020/12/03 19:56:27;;;;;;;3.63;1.33;;;12.80;99.90;;;;;;4794313;29;20035;-84
2020/12/03 19:58:55;;;;;;;5.28;1.30;;;12.80;99.90;;;;;;4788100;29;20811;-84
2020/12/03 20:01:22;;;;;;;3.28;1.05;;;12.80;99.90;;;;;;4806175;29;20254;-81
2020/12/03 20:03:49;;;;;;;4.35;1.13;;;12.80;99.90;;;;;;4806035;29;20146;-81
2020/12/03 20:06:15;;;;;;;5.50;1.40;;;12.70;99.90;;;;;;4820909;29;20090;-81
2020/12/03 20:08:41;;;;;;;7.03;1.33;;;12.80;99.90;;;;;;4811726;29;20088;-83
2020/12/03 20:11:07;;;;;;;6.78;1.30;;;12.80;99.90;;;;;;4818372;29;20071;-84
2020/12/03 20:13:36;;;;;;;3.60;1.45;;;12.80;99.90;;;;;;4805654;29;20027;-85
2020/12/03 20:16:03;;;;;;;5.60;1.20;;;12.70;99.90;;;;;;4822311;29;20530;-85
2020/12/03 20:18:30;;;;;;;8.52;1.83;;;12.80;99.90;;;;;;4822702;29;20125;-85
2020/12/03 20:20:57;;;;;;;9.65;1.95;;;12.80;99.90;;;;;;4796738;29;20034;-85
2020/12/03 20:23:23;;;;;;;2.83;0.93;;;12.80;99.90;;;;;;4804042;29;20037;-84
2020/12/03 20:25:49;;;;;;;6.80;1.70;;;12.80;99.90;;;;;;4802818;29;20504;-84
2020/12/03 20:28:16;;;;;;;6.43;2.50;;;12.70;99.90;;;;;;4802768;29;20034;-84
2020/12/03 20:30:42;;;;;;;5.75;1.42;;;12.80;99.90;;;;;;4792462;29;20035;-83
2020/12/03 20:33:08;;;;;;;3.17;1.15;;;12.80;99.90;;;;;;4820565;29;20037;-83
2020/12/03 20:35:34;;;;;;;5.90;1.35;;;12.80;99.90;;;;;;4820973;29;20119;-83
2020/12/03 20:38:00;;;;;;;7.13;1.70;;;12.80;99.90;;;;;;4809234;29;20035;-84
2020/12/03 20:40:27;;;;;;;8.95;2.22;;;12.80;99.90;;;;;;4799510;29;20044;-85
2020/12/03 20:42:53;;;;;;;4.63;2.05;;;12.90;99.90;;;;;;4802349;29;20509;-84
2020/12/03 20:45:19;;;;;;;4.13;2.65;;;13.00;99.90;;;;;;4802192;29;20086;-83
2020/12/03 20:47:45;;;;;;;5.10;1.38;;;13.10;99.90;;;;;;4787343;29;20213;-83
2020/12/03 20:50:11;;;;;;;5.53;1.95;;;13.20;99.90;;;;;;4787012;29;20057;-84
2020/12/03 20:52:37;;;;;;;8.75;1.92;;;13.20;99.90;;;;;;4800974;29;20042;-85
2020/12/03 20:55:03;;;;;;;8.60;2.40;;;13.20;99.90;;;;;;4805308;29;20038;-84
2020/12/03 20:57:29;;;;;;;5.55;1.90;;;13.30;99.90;;;;;;4804949;29;20555;-83
2020/12/03 20:59:55;;;;;;;9.57;3.03;;;13.30;99.90;;;;;;4805077;29;20098;-83
2020/12/03 21:02:21;;;;;;;7.13;2.30;;;13.30;99.90;;;;;;4820125;29;20042;-84
2020/12/03 21:04:47;;;;;;;11.77;3.05;;;13.20;99.90;;;;;;4820104;29;20478;-84
2020/12/03 21:07:13;;;;;;;7.90;1.90;;;13.30;99.90;;;;;;4819269;29;20034;-84
2020/12/03 21:09:39;;;;;;;8.43;1.98;;;13.30;99.90;;;;;;4821686;29;20026;-84
2020/12/03 21:12:06;;;;;;;5.47;1.58;;;13.20;99.90;;;;;;4820143;29;20042;-84
2020/12/03 21:14:32;;;;;;;3.20;1.10;;;13.10;99.90;;;;;;4804631;29;20367;-83
2020/12/03 21:16:58;;;;;;;2.75;1.20;;;13.10;99.90;;;;;;4809530;29;20047;-84
2020/12/03 21:19:24;;;;;;;2.75;1.48;;;13.10;99.90;;;;;;4783932;29;20384;-83
2020/12/03 21:21:50;;;;;;;2.67;0.70;;;13.10;99.90;;;;;;4768428;29;20092;-83
2020/12/03 21:24:16;;;;;;;2.50;1.05;;;13.10;99.90;;;;;;4768868;29;20455;-83
2020/12/03 21:26:42;;;;;;;5.75;1.75;;;13.10;99.90;;;;;;4791464;29;20041;-84
2020/12/03 21:29:09;;;;;;;2.58;1.33;;;13.10;99.90;;;;;;4804623;29;20405;-85
2020/12/03 21:31:35;;;;;;;4.90;1.20;;;13.20;99.90;;;;;;4819158;29;20046;-85
2020/12/03 21:34:01;;;;;;;2.63;1.05;;;13.10;99.90;;;;;;4820302;29;20030;-85
2020/12/03 21:36:27;;;;;;;2.75;1.10;;;13.10;99.90;;;;;;4804359;29;20034;-84
2020/12/03 21:38:53;;;;;;;2.85;1.00;;;13.10;99.90;;;;;;4800921;29;20059;-83
2020/12/03 21:41:21;;;;;;;6.25;1.73;;;13.10;99.90;;;;;;4805958;29;20031;-83
2020/12/03 21:43:48;;;;;;;4.45;1.95;;;13.00;99.90;;;;;;4801130;29;20066;-82
2020/12/03 21:46:17;;;;;;;5.63;1.40;;;13.00;99.90;;;;;;4803499;29;20030;-83
2020/12/03 21:48:44;;;;;;;6.38;1.63;;;13.00;99.90;;;;;;4819564;29;20042;-82
2020/12/03 21:51:10;;;;;;;3.58;1.75;;;13.00;99.90;;;;;;4819148;29;20054;-83
2020/12/03 21:53:36;;;;;;;9.45;1.90;;;13.10;99.90;;;;;;4788660;29;20031;-83
2020/12/03 21:56:04;;;;;;;2.72;0.90;;;13.10;99.90;;;;;;4801227;29;20068;-83
2020/12/03 21:58:31;;;;;;;2.20;1.30;;;13.00;99.90;;;;;;4800839;29;20031;-83
2020/12/03 22:00:58;;;;;;;3.60;1.30;;;13.10;99.90;;;;;;4804099;29;20146;-83
2020/12/03 22:03:26;;;;;;;4.15;1.35;;;13.10;99.90;;;;;;4786755;29;20502;-84
2020/12/03 22:05:53;;;;;;;4.72;1.73;;;13.10;99.90;;;;;;4797526;29;20037;-83
2020/12/03 22:08:20;;;;;;;3.38;1.50;;;13.10;99.90;;;;;;4801059;29;20096;-83
2020/12/03 22:10:47;;;;;;;5.60;1.80;;;13.20;99.90;;;;;;4802154;29;20045;-83
2020/12/03 22:13:14;;;;;;;5.95;2.22;;;13.20;99.90;;;;;;4800747;29;20466;-83
2020/12/03 22:15:44;;;;;;;4.28;1.88;;;13.20;99.90;;;;;;4785834;29;20403;-83
2020/12/03 22:18:11;;;;;;;7.57;2.22;;;13.20;99.90;;;;;;4800369;29;20032;-83
2020/12/03 22:20:37;;;;;;;9.00;2.30;;;13.20;99.90;;;;;;4797047;29;20058;-85
2020/12/03 22:23:03;;;;;;;4.40;2.22;;;13.20;99.90;;;;;;4811092;29;20509;-85
2020/12/03 22:25:29;;;;;;;8.05;3.08;;;13.20;99.90;;;;;;4806363;29;20063;-85
2020/12/03 22:27:55;;;;;;;10.50;3.83;;;13.20;99.90;;;;;;4789864;29;20069;-85
2020/12/03 22:30:21;;;;;;;11.10;3.80;;;13.20;99.90;;;;;;4805589;29;20058;-84
2020/12/03 22:32:47;;;;;;;8.05;3.33;;;13.30;99.90;;;;;;4791861;29;20498;-85
2020/12/03 22:35:14;;;;;;;11.63;3.15;;;13.30;99.90;;;;;;4802332;29;20037;-85
2020/12/03 22:37:40;;;;;;;9.35;2.80;;;13.30;99.90;;;;;;4801644;29;20039;-84
2020/12/03 22:40:07;;;;;;;15.32;4.28;;;13.20;99.90;;;;;;4810202;29;20027;-85
2020/12/03 22:42:33;;;;;;;8.02;3.05;;;13.20;99.90;;;;;;4822647;29;20038;-85
2020/12/03 22:44:59;;;;;;;14.75;3.03;;;13.10;99.90;;;;;;4807636;29;20048;-85
2020/12/03 22:47:25;;;;;;;5.57;1.63;;;13.10;99.90;;;;;;4815972;29;20038;-84
2020/12/03 22:49:53;;;;;;;4.93;1.63;;;13.10;99.90;;;;;;4805720;29;20054;-84
2020/12/03 22:52:19;;;;;;;6.00;2.05;;;13.10;99.90;;;;;;4820143;29;20684;-85
